Portada
METAR-TAF:

METAR-TAF

Aeropuertos :

Vitória, Espírito Santo, Brasil

latitud: 20-16S, longitud: 040-17W, altitud: 4 m

Observación

El informe se hizo hace 28 minutos, a las 12:00 UTC
Viento 7 kt del norte-noreste
Temperatura 26°C
Humedad 89%
Presión 1008 hPa
Visibilidad 10 km o más
Escasas nubes a una altura de 1000 ft
Cielo nuboso a una altura de 10000 ft

METAR: SBVT 051200Z 02007KT 9999 FEW010 BKN100 26/24 Q1008

Hora: 10:28 (12:28 UTC)

Pronóstico

El informe se hizo hace 2 horas y 28 minutos, a las 10:00 UTC
Pronóstico válido del 05 a las 12 UTC al 06 a las 12 UTC
Viento 9 kt del norte
Visibilidad: 7000 m
Nubes dispersas a una altura de 1000 ft
Cielo nuboso a una altura de 2000 ft
Temporalmente
del 05 a las 16 UTC al 05 a las 20 UTC
Visibilidad: 4000 m
Cielo nuboso a una altura de 900 ft
lluvia

TAF: SBVT 051000Z 0512/0612 36009KT 7000 SCT010 BKN020 TX28/0516Z TN23 /0608Z TEMPO 0516/0520 4000 RA BKN009 RMK PEA

Observaciones y pronósticos meteorológicos de más de 4000 aeropuertos (mensajes METAR y TAF).

Los puntos amarillos y rojos representan las estaciones disponibles.

Ponga el ratón en el punto deseado para ver el nombre de la estación.

Haga clic para ver las observaciones y los pronósticos meteorológicos.

Para cambiar el mapa : haga clic en los botones verdes con una cruz de color negro para hacer un zoom, en el botón verde con un guión para alejar o en las flechas verdes para mapas adyacentes.


METAR-TAF: